createdAt,value
2018-08-09T00:00:52.777Z,21.59
2018-08-09T00:01:53.035Z,21.59
2018-08-09T00:02:53.022Z,21.59
2018-08-09T00:03:53.024Z,21.58
2018-08-09T00:04:53.018Z,21.59
2018-08-09T00:05:52.765Z,21.56
2018-08-09T00:06:52.788Z,21.61
2018-08-09T00:07:53.016Z,21.61
2018-08-09T00:08:53.016Z,21.56
2018-08-09T00:09:52.756Z,21.58
2018-08-09T00:10:53.008Z,21.64
2018-08-09T00:11:52.756Z,21.58
2018-08-09T00:12:52.752Z,21.61
2018-08-09T00:13:52.999Z,21.54
2018-08-09T00:14:53.006Z,21.56
2018-08-09T00:15:52.995Z,21.58
2018-08-09T00:16:52.999Z,21.54
2018-08-09T00:17:52.992Z,21.56
2018-08-09T00:18:52.997Z,21.49
2018-08-09T00:19:52.740Z,21.53
2018-08-09T00:20:52.994Z,21.49
2018-08-09T00:21:52.988Z,21.43
2018-08-09T00:22:52.985Z,21.43
2018-08-09T00:23:52.812Z,21.38
2018-08-09T00:24:52.737Z,21.35
2018-08-09T00:25:52.985Z,21.4
2018-08-09T00:26:52.980Z,21.35
2018-08-09T00:27:52.980Z,21.4
2018-08-09T00:28:52.470Z,21.34
2018-08-09T00:29:52.971Z,21.34
2018-08-09T00:30:52.721Z,21.31
2018-08-09T00:31:52.971Z,21.31
2018-08-09T00:32:52.967Z,21.19
2018-08-09T00:33:52.963Z,21.19
2018-08-09T00:34:52.710Z,21.24
2018-08-09T00:35:52.456Z,21.19
2018-08-09T00:36:52.716Z,21.17
2018-08-09T00:37:52.960Z,21.16
2018-08-09T00:38:52.951Z,21.22
2018-08-09T00:39:52.953Z,21.13
2018-08-09T00:40:52.950Z,21.21
2018-08-09T00:41:52.695Z,21.22
2018-08-09T00:42:52.957Z,21.17
2018-08-09T00:43:52.946Z,21.16
2018-08-09T00:44:52.958Z,21.22
2018-08-09T00:45:52.939Z,21.12
2018-08-09T00:46:52.936Z,21.16
2018-08-09T00:47:52.935Z,21.21
2018-08-09T00:48:52.936Z,21.19
2018-08-09T00:49:52.429Z,21.19
2018-08-09T00:50:52.680Z,21.12
2018-08-09T00:51:52.935Z,21.17
2018-08-09T00:52:52.928Z,21.21
2018-08-09T00:53:52.922Z,21.12
2018-08-09T00:54:52.921Z,21.16
2018-08-09T00:55:52.920Z,21.12
2018-08-09T00:56:52.920Z,21.13
2018-08-09T00:57:52.673Z,21.14
2018-08-09T00:58:52.916Z,21.14
2018-08-09T00:59:52.909Z,21.12
2018-08-09T01:00:52.657Z,21.14
2018-08-09T01:01:52.903Z,21.14
2018-08-09T01:02:52.906Z,21.1
2018-08-09T01:03:52.903Z,21.09
2018-08-09T01:04:52.900Z,21.1
2018-08-09T01:05:52.645Z,21.1
2018-08-09T01:06:52.894Z,21.1
2018-08-09T01:07:52.894Z,21.01
2018-08-09T01:08:52.889Z,21.01
2018-08-09T01:09:52.385Z,20.98
2018-08-09T01:10:52.634Z,20.99
2018-08-09T01:11:52.637Z,20.99
2018-08-09T01:12:52.882Z,20.99
2018-08-09T01:13:52.879Z,21.09
2018-08-09T01:15:52.876Z,20.97
2018-08-09T01:16:52.873Z,20.97
2018-08-09T01:17:52.873Z,20.98
2018-08-09T01:18:52.870Z,20.99
2018-08-09T01:19:52.869Z,20.97
2018-08-09T01:20:52.866Z,21.01
2018-08-09T01:21:52.861Z,20.98
2018-08-09T01:22:52.862Z,20.97
2018-08-09T01:23:52.855Z,21.01
2018-08-09T01:24:52.601Z,21.03
2018-08-09T01:25:52.851Z,21.04
2018-08-09T01:26:52.853Z,21.04
2018-08-09T01:27:52.853Z,21.09
2018-08-09T01:28:52.842Z,21.06
2018-08-09T01:29:52.845Z,21.06
2018-08-09T01:30:52.594Z,21.1
2018-08-09T01:31:52.835Z,21.14
2018-08-09T01:32:53.032Z,21.12
2018-08-09T01:33:52.330Z,21.16
2018-08-09T01:34:52.833Z,21.21
2018-08-09T01:35:52.842Z,21.13
2018-08-09T01:36:52.573Z,21.17
2018-08-09T01:37:52.823Z,21.17
2018-08-09T01:38:52.825Z,21.19
2018-08-09T01:39:52.831Z,21.09
2018-08-09T01:40:52.832Z,21.21
2018-08-09T01:41:52.836Z,21.16
2018-08-09T01:42:52.814Z,21.19
2018-08-09T01:43:52.851Z,21.14
2018-08-09T01:44:52.808Z,21.19
2018-08-09T01:45:52.551Z,21.22
2018-08-09T01:46:52.806Z,21.22
2018-08-09T01:47:52.813Z,21.19
2018-08-09T01:48:52.797Z,21.17
2018-08-09T01:49:52.794Z,21.31
2018-08-09T01:50:52.809Z,21.28
2018-08-09T01:51:52.545Z,21.27
2018-08-09T01:52:52.988Z,21.32
2018-08-09T01:53:52.790Z,21.25
2018-08-09T01:54:52.789Z,21.37
2018-08-09T01:55:52.779Z,21.32
2018-08-09T01:56:52.824Z,21.31
2018-08-09T01:57:52.777Z,21.31
2018-08-09T01:58:52.774Z,21.35
2018-08-09T01:59:54.048Z,21.47
2018-08-09T02:01:52.774Z,21.59
2018-08-09T02:02:52.765Z,21.59
2018-08-09T02:03:52.765Z,21.61
2018-08-09T02:04:53.180Z,21.71
2018-08-09T02:05:52.760Z,21.62
2018-08-09T02:06:52.766Z,21.72
2018-08-09T02:07:52.579Z,21.83
2018-08-09T02:08:52.758Z,21.83
2018-08-09T02:09:52.754Z,21.83
2018-08-09T02:10:52.752Z,21.9
2018-08-09T02:11:52.761Z,21.9
2018-08-09T02:12:52.747Z,21.96
2018-08-09T02:13:52.741Z,21.92
2018-08-09T02:14:52.745Z,21.88
2018-08-09T02:15:52.744Z,21.96
2018-08-09T02:16:52.754Z,21.92
2018-08-09T02:17:52.738Z,21.91
2018-08-09T02:18:52.730Z,21.96
2018-08-09T02:19:52.478Z,21.9
2018-08-09T02:20:52.476Z,21.84
2018-08-09T02:21:52.741Z,21.88
2018-08-09T02:22:52.733Z,21.82
2018-08-09T02:23:52.724Z,21.98
2018-08-09T02:24:52.720Z,21.91
2018-08-09T02:25:52.721Z,21.94
2018-08-09T02:26:52.720Z,21.96
2018-08-09T02:27:52.720Z,21.88
2018-08-09T02:28:52.712Z,22
2018-08-09T02:29:52.754Z,21.91
2018-08-09T02:30:52.722Z,21.82
2018-08-09T02:31:52.712Z,21.83
2018-08-09T02:32:52.712Z,21.84
2018-08-09T02:33:52.452Z,21.86
2018-08-09T02:34:52.458Z,21.92
2018-08-09T02:35:52.711Z,21.82
2018-08-09T02:36:52.701Z,21.88
2018-08-09T02:37:52.694Z,21.75
2018-08-09T02:38:52.699Z,21.77
2018-08-09T02:39:52.689Z,21.77
2018-08-09T02:40:52.691Z,21.72
2018-08-09T02:41:52.687Z,21.65
2018-08-09T02:42:52.685Z,21.72
2018-08-09T02:43:52.433Z,21.72
2018-08-09T02:44:52.680Z,21.67
2018-08-09T02:45:52.685Z,21.71
2018-08-09T02:46:53.027Z,21.64
2018-08-09T02:47:52.676Z,21.67
2018-08-09T02:48:52.420Z,21.64
2018-08-09T02:49:52.420Z,21.61
2018-08-09T02:50:52.668Z,21.61
2018-08-09T02:51:52.679Z,21.56
2018-08-09T02:52:52.411Z,21.52
2018-08-09T02:53:52.662Z,21.58
2018-08-09T02:54:52.659Z,21.49
2018-08-09T02:55:52.405Z,21.49
2018-08-09T02:56:52.406Z,21.52
2018-08-09T02:57:52.400Z,21.49
2018-08-09T02:58:52.672Z,21.56
2018-08-09T02:59:52.406Z,21.46
2018-08-09T03:00:52.660Z,21.46
2018-08-09T03:01:52.645Z,21.34
2018-08-09T03:02:52.395Z,21.42
2018-08-09T03:03:52.643Z,21.38
2018-08-09T03:04:52.429Z,21.38
2018-08-09T03:05:52.386Z,21.35
2018-08-09T03:06:52.634Z,21.34
2018-08-09T03:07:52.387Z,21.34
2018-08-09T03:08:52.641Z,21.35
2018-08-09T03:09:52.632Z,21.29
2018-08-09T03:10:52.634Z,21.46
2018-08-09T03:11:52.626Z,21.37
2018-08-09T03:12:52.625Z,21.37
2018-08-09T03:13:52.618Z,21.25
2018-08-09T03:14:52.617Z,21.35
2018-08-09T03:15:52.612Z,21.27
2018-08-09T03:16:52.366Z,21.29
2018-08-09T03:17:52.608Z,21.27
2018-08-09T03:18:52.609Z,21.27
2018-08-09T03:19:52.601Z,21.17
2018-08-09T03:20:52.600Z,21.19
2018-08-09T03:21:52.604Z,21.31
2018-08-09T03:22:52.594Z,21.21
2018-08-09T03:23:52.089Z,21.29
2018-08-09T03:24:52.589Z,21.17
2018-08-09T03:25:52.596Z,21.24
2018-08-09T03:26:52.589Z,21.17
2018-08-09T03:27:52.593Z,21.21
2018-08-09T03:28:52.581Z,21.16
2018-08-09T03:29:52.328Z,21.16
2018-08-09T03:30:52.585Z,21.19
2018-08-09T03:31:52.335Z,21.17
2018-08-09T03:32:52.571Z,21.19
2018-08-09T03:33:52.573Z,21.21
2018-08-09T03:34:52.582Z,21.22
2018-08-09T03:35:52.568Z,21.16
2018-08-09T03:36:52.313Z,21.22
2018-08-09T03:37:52.559Z,21.16
2018-08-09T03:38:52.558Z,21.22
2018-08-09T03:39:52.559Z,21.17
2018-08-09T03:40:52.558Z,21.17
2018-08-09T03:41:52.552Z,21.24
2018-08-09T03:42:52.550Z,21.27
2018-08-09T03:43:52.547Z,21.21
2018-08-09T03:44:52.544Z,21.21
2018-08-09T03:45:52.541Z,21.16
2018-08-09T03:46:52.538Z,21.16
2018-08-09T03:47:52.540Z,21.24
2018-08-09T03:48:52.283Z,21.24
2018-08-09T03:49:52.538Z,21.22
2018-08-09T03:50:52.529Z,21.22
2018-08-09T03:51:52.528Z,21.17
2018-08-09T03:52:52.524Z,21.27
2018-08-09T03:53:52.529Z,21.25
2018-08-09T03:54:52.528Z,21.35
2018-08-09T03:55:52.524Z,21.25
2018-08-09T03:56:52.516Z,21.28
2018-08-09T03:57:52.514Z,21.34
2018-08-09T03:58:52.518Z,21.34
2018-08-09T03:59:52.671Z,21.35
2018-08-09T04:00:52.509Z,21.4
2018-08-09T04:01:52.505Z,21.42
2018-08-09T04:02:52.506Z,21.49
2018-08-09T04:03:52.506Z,21.53
2018-08-09T04:04:52.515Z,21.59
2018-08-09T04:05:52.244Z,21.56
2018-08-09T04:06:52.494Z,21.64
2018-08-09T04:07:52.492Z,21.65
2018-08-09T04:08:52.496Z,21.75
2018-08-09T04:09:52.491Z,21.61
2018-08-09T04:10:52.484Z,21.71
2018-08-09T04:11:52.324Z,21.72
2018-08-09T04:12:52.480Z,21.83
2018-08-09T04:13:52.477Z,21.83
2018-08-09T04:14:52.475Z,21.84
2018-08-09T04:15:52.227Z,21.91
2018-08-09T04:16:52.472Z,21.92
2018-08-09T04:17:52.536Z,21.98
2018-08-09T04:18:52.219Z,22.06
2018-08-09T04:19:52.465Z,22.06
2018-08-09T04:20:52.220Z,22.03
2018-08-09T04:21:52.462Z,22.12
2018-08-09T04:22:52.477Z,22.09
2018-08-09T04:23:52.461Z,22.24
2018-08-09T04:24:52.458Z,22.28
2018-08-09T04:25:52.461Z,22.31
2018-08-09T04:26:52.455Z,22.37
2018-08-09T04:27:52.467Z,22.42
2018-08-09T04:28:52.465Z,22.36
2018-08-09T04:29:52.490Z,22.4
2018-08-09T04:30:52.454Z,22.43
2018-08-09T04:31:52.447Z,22.58
2018-08-09T04:32:52.447Z,22.49
2018-08-09T04:33:52.204Z,22.54
2018-08-09T04:34:52.442Z,22.6
2018-08-09T04:35:52.190Z,22.65
2018-08-09T04:36:52.187Z,22.7
2018-08-09T04:37:52.512Z,22.83
2018-08-09T04:38:52.441Z,22.91
2018-08-09T04:39:52.184Z,22.97
2018-08-09T04:40:52.432Z,23.04
2018-08-09T04:41:51.930Z,23.25
2018-08-09T04:42:52.433Z,23.22
2018-08-09T04:43:52.429Z,23.31
2018-08-09T04:44:52.429Z,23.33
2018-08-09T04:45:52.178Z,23.46
2018-08-09T04:46:51.927Z,23.47
2018-08-09T04:47:52.426Z,23.57
2018-08-09T04:48:52.426Z,23.75
2018-08-09T04:49:52.429Z,23.8
2018-08-09T04:50:52.428Z,23.83
2018-08-09T04:51:52.424Z,23.97
2018-08-09T04:52:51.922Z,24.03
2018-08-09T04:53:52.430Z,24.12
2018-08-09T04:54:52.426Z,24.16
2018-08-09T04:55:52.177Z,24.34
2018-08-09T04:56:52.435Z,24.53
2018-08-09T04:57:52.436Z,24.67
2018-08-09T04:58:52.428Z,24.81
2018-08-09T04:59:52.434Z,24.83
2018-08-09T05:00:52.432Z,24.9
2018-08-09T05:01:52.177Z,24.99
2018-08-09T05:02:52.432Z,25.09
2018-08-09T05:03:52.179Z,25.14
2018-08-09T05:04:52.458Z,25.32
2018-08-09T05:05:52.435Z,25.32
2018-08-09T05:06:52.481Z,25.51
2018-08-09T05:07:52.437Z,25.54
2018-08-09T05:08:52.440Z,25.58
2018-08-09T05:09:52.191Z,25.61
2018-08-09T05:10:52.439Z,25.64
2018-08-09T05:11:52.449Z,25.69
2018-08-09T05:12:52.454Z,25.82
2018-08-09T05:13:52.445Z,25.83
2018-08-09T05:14:52.451Z,25.83
2018-08-09T05:15:52.552Z,25.97
2018-08-09T05:16:52.204Z,26.06
2018-08-09T05:17:52.467Z,26.17
2018-08-09T05:18:52.457Z,26.28
2018-08-09T05:19:52.460Z,26.45
2018-08-09T05:20:52.467Z,26.55
2018-08-09T05:21:52.463Z,26.54
2018-08-09T05:22:52.473Z,26.77
2018-08-09T05:23:52.469Z,26.81
2018-08-09T05:24:52.484Z,26.85
2018-08-09T05:25:52.474Z,26.82
2018-08-09T05:26:52.480Z,26.88
2018-08-09T05:27:52.485Z,26.94
2018-08-09T05:28:52.489Z,26.99
2018-08-09T05:29:51.991Z,27.03
2018-08-09T05:30:52.243Z,27.02
2018-08-09T05:31:52.505Z,27.24
2018-08-09T05:32:52.502Z,27.4
2018-08-09T05:33:52.512Z,27.6
2018-08-09T05:34:52.511Z,27.77
2018-08-09T05:35:52.517Z,27.66
2018-08-09T05:36:52.531Z,27.65
2018-08-09T05:37:52.522Z,27.54
2018-08-09T05:38:52.286Z,27.51
2018-08-09T05:39:52.536Z,27.57
2018-08-09T05:40:52.538Z,27.51
2018-08-09T05:41:52.300Z,27.63
2018-08-09T05:42:52.548Z,27.81
2018-08-09T05:43:52.553Z,27.81
2018-08-09T05:44:52.557Z,27.79
2018-08-09T05:45:52.575Z,27.93
2018-08-09T05:46:52.567Z,27.88
2018-08-09T05:47:52.577Z,28.02
2018-08-09T05:48:52.579Z,28.02
2018-08-09T05:49:52.590Z,28.06
2018-08-09T05:50:52.592Z,28.14
2018-08-09T05:51:52.598Z,28.22
2018-08-09T05:52:52.981Z,28.29
2018-08-09T05:53:52.608Z,28.41
2018-08-09T05:54:52.616Z,28.4
2018-08-09T05:55:52.623Z,28.44
2018-08-09T05:56:52.625Z,28.58
2018-08-09T05:57:52.644Z,28.85
2018-08-09T05:58:52.642Z,29.05
2018-08-09T05:59:52.657Z,29.02
2018-08-09T06:00:52.661Z,28.96
2018-08-09T06:01:52.668Z,29.11
2018-08-09T06:02:52.673Z,29.16
2018-08-09T06:03:52.675Z,29.18
2018-08-09T06:04:52.681Z,29.02
2018-08-09T06:05:52.963Z,29.05
2018-08-09T06:06:52.443Z,29.12
2018-08-09T06:07:52.451Z,29.33
2018-08-09T06:08:52.709Z,29.6
2018-08-09T06:09:52.719Z,29.67
2018-08-09T06:10:52.471Z,29.95
2018-08-09T06:11:52.480Z,30.08
2018-08-09T06:12:52.487Z,30.11
2018-08-09T06:13:52.242Z,30.38
2018-08-09T06:14:52.250Z,30.47
2018-08-09T06:15:52.767Z,30.65
2018-08-09T06:16:52.516Z,30.77
2018-08-09T06:17:52.788Z,30.75
2018-08-09T06:18:52.672Z,30.58
2018-08-09T06:19:52.792Z,30.51
2018-08-09T06:20:52.815Z,30.49
2018-08-09T06:21:52.561Z,30.46
2018-08-09T06:22:52.565Z,30.38
2018-08-09T06:23:52.572Z,30.42
2018-08-09T06:24:52.835Z,30.53
2018-08-09T06:25:52.844Z,30.53
2018-08-09T06:26:52.849Z,30.53
2018-08-09T06:27:52.607Z,30.58
2018-08-09T06:28:53.058Z,30.61
2018-08-09T06:29:52.880Z,30.55
2018-08-09T06:30:52.886Z,30.6
2018-08-09T06:31:52.892Z,30.83
2018-08-09T06:32:52.901Z,30.86
2018-08-09T06:33:52.914Z,30.82
2018-08-09T06:34:52.922Z,30.75
2018-08-09T06:35:52.932Z,30.73
2018-08-09T06:36:52.936Z,30.62
2018-08-09T06:38:07.620Z,30.65
2018-08-09T06:38:52.957Z,30.58
2018-08-09T06:39:52.960Z,30.73
2018-08-09T06:40:52.976Z,30.6
2018-08-09T06:41:52.982Z,30.39
2018-08-09T06:42:52.988Z,30.39
2018-08-09T06:43:52.997Z,30.29
2018-08-09T06:44:53.005Z,30.31
2018-08-09T06:45:55.566Z,30.24
2018-08-09T06:46:53.024Z,30.19
2018-08-09T06:48:05.766Z,30.26
2018-08-09T06:48:53.042Z,30.24
2018-08-09T06:49:53.050Z,30.29
2018-08-09T06:50:53.060Z,30.17
2018-08-09T06:51:53.071Z,30.08
2018-08-09T06:52:53.083Z,30.15
2018-08-09T06:53:53.092Z,30.32
2018-08-09T06:54:52.845Z,30.38
2018-08-09T06:55:53.105Z,30.32
2018-08-09T06:56:53.112Z,30.42
2018-08-09T06:57:53.122Z,30.54
2018-08-09T06:58:52.877Z,30.76
2018-08-09T06:59:53.139Z,30.88
2018-08-09T07:00:52.902Z,31.12
2018-08-09T07:01:53.163Z,31.21
2018-08-09T07:03:05.905Z,31.34
2018-08-09T07:03:53.179Z,31.43
2018-08-09T07:04:52.934Z,31.43
2018-08-09T07:05:52.941Z,31.65
2018-08-09T07:06:53.271Z,31.63
2018-08-09T07:07:55.879Z,31.54
2018-08-09T07:08:53.230Z,31.65
2018-08-09T07:09:52.978Z,31.62
2018-08-09T07:10:53.241Z,31.56
2018-08-09T07:11:52.997Z,31.38
2018-08-09T07:12:53.686Z,31.41
2018-08-09T07:13:53.268Z,31.56
2018-08-09T07:14:53.027Z,31.7
2018-08-09T07:15:53.287Z,31.88
2018-08-09T07:16:53.298Z,31.92
2018-08-09T07:17:53.314Z,32.04
2018-08-09T07:18:53.314Z,32.08
2018-08-09T07:19:53.328Z,32.18
2018-08-09T07:20:53.085Z,32.21
2018-08-09T07:21:53.346Z,32.37
2018-08-09T07:22:53.369Z,32.51
2018-08-09T07:23:53.376Z,32.56
2018-08-09T07:24:52.873Z,32.51
2018-08-09T07:25:53.390Z,32.72
2018-08-09T07:26:53.398Z,32.93
2018-08-09T07:27:53.406Z,33.06
2018-08-09T07:28:53.167Z,33
2018-08-09T07:29:53.181Z,32.85
2018-08-09T07:30:53.441Z,32.77
2018-08-09T07:31:53.447Z,32.7
2018-08-09T07:32:53.470Z,32.45
2018-08-09T07:33:53.309Z,32.28
2018-08-09T07:34:53.229Z,32.33
2018-08-09T07:35:53.500Z,32.55
2018-08-09T07:36:53.250Z,32.7
2018-08-09T07:37:53.515Z,32.74
2018-08-09T07:38:53.522Z,32.77
2018-08-09T07:39:53.947Z,32.84
2018-08-09T07:40:53.549Z,32.62
2018-08-09T07:41:53.307Z,32.59
2018-08-09T07:42:53.566Z,32.38
2018-08-09T07:43:53.577Z,32.23
2018-08-09T07:44:53.592Z,32.03
2018-08-09T07:45:53.348Z,31.8
2018-08-09T07:46:53.609Z,31.65
2018-08-09T07:47:53.368Z,31.62
2018-08-09T07:48:53.540Z,31.68
2018-08-09T07:49:53.642Z,31.68
2018-08-09T07:50:53.659Z,31.86
2018-08-09T07:51:53.412Z,32.14
2018-08-09T07:52:53.677Z,32.22
2018-08-09T07:53:53.691Z,32.52
2018-08-09T07:54:53.698Z,32.57
2018-08-09T07:55:53.461Z,32.62
2018-08-09T07:56:53.469Z,32.52
2018-08-09T07:57:53.476Z,32.4
2018-08-09T07:58:53.738Z,32.1
2018-08-09T07:59:53.772Z,32.22
2018-08-09T08:00:53.957Z,32.32
2018-08-09T08:01:53.519Z,32.51
2018-08-09T08:02:53.785Z,32.48
2018-08-09T08:03:53.793Z,32.52
2018-08-09T08:04:53.806Z,32.57
2018-08-09T08:05:54.048Z,32.52
2018-08-09T08:06:53.827Z,32.57
2018-08-09T08:07:53.332Z,32.4
2018-08-09T08:08:53.596Z,32.5
2018-08-09T08:09:53.609Z,32.5
2018-08-09T08:10:53.616Z,32.5
2018-08-09T08:11:53.883Z,32.48
2018-08-09T08:12:53.635Z,32.48
2018-08-09T08:13:53.898Z,32.57
2018-08-09T08:14:53.428Z,32.56
2018-08-09T08:15:53.669Z,32.55
2018-08-09T08:16:53.680Z,32.52
2018-08-09T08:17:53.692Z,32.43
2018-08-09T08:18:53.959Z,32.26
2018-08-09T08:19:53.712Z,32.19
2018-08-09T08:20:54.166Z,32.03
2018-08-09T08:21:53.735Z,32.07
2018-08-09T08:22:53.747Z,32.21
2018-08-09T08:23:54.012Z,32.23
2018-08-09T08:24:54.031Z,32.33
2018-08-09T08:25:54.032Z,32.3
2018-08-09T08:26:54.213Z,32.47
2018-08-09T08:27:54.061Z,32.51
2018-08-09T08:28:54.067Z,32.59
2018-08-09T08:29:53.827Z,32.67
2018-08-09T08:30:54.088Z,32.92
2018-08-09T08:31:54.111Z,33.07
2018-08-09T08:32:54.109Z,33.32
2018-08-09T08:33:54.130Z,33.34
2018-08-09T08:34:53.887Z,33.31
2018-08-09T08:37:54.168Z,33.29
2018-08-09T08:38:54.181Z,33.38
2018-08-09T08:39:54.192Z,33.34
2018-08-09T08:40:54.204Z,33.34
2018-08-09T08:41:54.749Z,33.32
2018-08-09T08:42:53.973Z,33.15
2018-08-09T08:43:54.238Z,32.94
2018-08-09T08:44:54.249Z,32.87
2018-08-09T08:45:54.260Z,32.75
2018-08-09T08:46:54.021Z,32.65
2018-08-09T08:47:54.282Z,32.67
2018-08-09T08:48:54.297Z,32.77
2018-08-09T08:49:54.310Z,32.65
2018-08-09T08:50:54.315Z,32.65
2018-08-09T08:51:54.335Z,32.65
2018-08-09T08:52:54.345Z,32.57
2018-08-09T08:53:54.098Z,32.5
2018-08-09T08:54:54.108Z,32.4
2018-08-09T08:55:54.374Z,32.37
2018-08-09T08:56:54.408Z,32.32
2018-08-09T08:57:54.130Z,32.29
2018-08-09T08:58:54.390Z,32.19
2018-08-09T08:59:54.407Z,32.14
2018-08-09T09:00:54.586Z,32.06
2018-08-09T09:01:54.422Z,32.03
2018-08-09T09:02:53.929Z,31.96
2018-08-09T09:03:54.432Z,31.99
2018-08-09T09:04:54.192Z,31.84
2018-08-09T09:05:54.451Z,31.8
2018-08-09T09:06:54.588Z,31.7
2018-08-09T09:07:54.467Z,31.65
2018-08-09T09:08:53.967Z,31.51
2018-08-09T09:09:54.486Z,31.41
2018-08-09T09:10:54.232Z,31.25
2018-08-09T09:11:54.240Z,31.35
2018-08-09T09:12:54.498Z,31.21
2018-08-09T09:13:54.625Z,31.17
2018-08-09T09:14:54.510Z,31.13
2018-08-09T09:15:54.517Z,31.12
2018-08-09T09:16:54.541Z,31.16
2018-08-09T09:17:54.541Z,30.99
2018-08-09T09:18:54.537Z,31.01
2018-08-09T09:19:54.292Z,31.02
2018-08-09T09:20:54.552Z,31.02
2018-08-09T09:21:54.313Z,30.99
2018-08-09T09:22:54.564Z,30.97
2018-08-09T09:23:54.573Z,30.83
2018-08-09T09:24:54.334Z,30.82
2018-08-09T09:25:54.582Z,30.76
2018-08-09T09:26:54.624Z,30.76
2018-08-09T09:27:54.593Z,30.76
2018-08-09T09:28:54.348Z,30.76
2018-08-09T09:29:54.603Z,30.7
2018-08-09T09:30:54.611Z,30.75
2018-08-09T09:31:54.116Z,30.69
2018-08-09T09:32:54.625Z,30.75
2018-08-09T09:33:54.376Z,30.82
2018-08-09T09:34:54.633Z,30.82
2018-08-09T09:35:54.642Z,30.8
2018-08-09T09:36:54.646Z,30.82
2018-08-09T09:37:54.648Z,30.82
2018-08-09T09:38:54.652Z,30.8
2018-08-09T09:39:54.406Z,30.75
2018-08-09T09:40:54.410Z,30.75
2018-08-09T09:41:54.669Z,30.64
2018-08-09T09:42:54.680Z,30.61
2018-08-09T09:43:54.431Z,30.49
2018-08-09T09:44:54.435Z,30.57
2018-08-09T09:45:54.695Z,30.43
2018-08-09T09:46:54.446Z,30.49
2018-08-09T09:47:54.704Z,30.45
2018-08-09T09:48:54.706Z,30.6
2018-08-09T09:49:54.213Z,30.62
2018-08-09T09:50:54.467Z,30.64
2018-08-09T09:51:54.721Z,30.73
2018-08-09T09:52:54.726Z,30.75
2018-08-09T09:53:54.737Z,30.76
2018-08-09T09:54:54.512Z,30.75
2018-08-09T09:55:54.811Z,30.76
2018-08-09T09:56:54.496Z,30.76
2018-08-09T09:57:54.502Z,30.75
2018-08-09T09:58:54.763Z,30.8
2018-08-09T09:59:54.762Z,30.73
2018-08-09T10:00:54.771Z,30.75
2018-08-09T10:01:54.638Z,30.7
2018-08-09T10:02:54.780Z,30.73
2018-08-09T10:03:54.789Z,30.72
2018-08-09T10:04:54.791Z,30.72
2018-08-09T10:05:54.291Z,30.79
2018-08-09T10:06:54.548Z,30.88
2018-08-09T10:07:54.805Z,30.92
2018-08-09T10:08:54.813Z,30.98
2018-08-09T10:09:54.814Z,30.97
2018-08-09T10:10:54.569Z,31.06
2018-08-09T10:11:54.827Z,31.16
2018-08-09T10:12:54.969Z,31.14
2018-08-09T10:13:54.836Z,31.21
2018-08-09T10:14:54.347Z,31.25
2018-08-09T10:15:54.848Z,31.29
2018-08-09T10:16:54.851Z,31.38
2018-08-09T10:17:54.858Z,31.19
2018-08-09T10:18:54.860Z,31.17
2018-08-09T10:19:54.752Z,31.2
2018-08-09T10:20:54.871Z,31.1
2018-08-09T10:21:54.375Z,31.2
2018-08-09T10:22:54.885Z,31.17
2018-08-09T10:23:54.893Z,31.31
2018-08-09T10:24:54.644Z,31.34
2018-08-09T10:25:54.901Z,31.31
2018-08-09T10:26:54.905Z,31.35
2018-08-09T10:27:54.911Z,31.48
2018-08-09T10:28:54.913Z,31.43
2018-08-09T10:29:54.779Z,31.56
2018-08-09T10:30:54.924Z,31.53
2018-08-09T10:31:54.934Z,31.73
2018-08-09T10:32:54.685Z,31.65
2018-08-09T10:33:54.945Z,31.66
2018-08-09T10:34:54.695Z,31.7
2018-08-09T10:35:54.951Z,31.76
2018-08-09T10:36:54.958Z,31.73
2018-08-09T10:37:54.963Z,31.76
2018-08-09T10:38:54.719Z,31.7
2018-08-09T10:39:54.725Z,31.78
2018-08-09T10:40:54.981Z,31.76
2018-08-09T10:41:54.983Z,31.81
2018-08-09T10:42:54.823Z,31.88
2018-08-09T10:43:54.996Z,31.84
2018-08-09T10:44:55.005Z,32.01
2018-08-09T10:45:54.759Z,32.03
2018-08-09T10:46:54.768Z,31.92
2018-08-09T10:47:54.767Z,32.04
2018-08-09T10:48:55.051Z,31.95
2018-08-09T10:49:55.033Z,31.89
2018-08-09T10:50:55.044Z,31.99
2018-08-09T10:51:55.051Z,31.99
2018-08-09T10:52:54.544Z,31.92
2018-08-09T10:53:55.052Z,32.04
2018-08-09T10:54:54.806Z,32.07
2018-08-09T10:55:55.069Z,32.04
2018-08-09T10:56:55.067Z,32.15
2018-08-09T10:57:55.074Z,32.18
2018-08-09T10:58:55.081Z,32.15
2018-08-09T10:59:55.087Z,32.28
2018-08-09T11:00:55.093Z,32.35
2018-08-09T11:01:55.214Z,32.3
2018-08-09T11:02:54.851Z,32.5
2018-08-09T11:03:55.111Z,32.51
2018-08-09T11:04:55.113Z,32.56
2018-08-09T11:05:55.129Z,32.66
2018-08-09T11:06:54.878Z,32.72
2018-08-09T11:07:55.137Z,32.74
2018-08-09T11:08:54.889Z,32.75
2018-08-09T11:09:55.146Z,32.79
2018-08-09T11:10:55.154Z,32.78
2018-08-09T11:11:55.152Z,32.82
2018-08-09T11:12:55.165Z,32.75
2018-08-09T11:13:55.172Z,32.78
2018-08-09T11:14:55.195Z,32.75
2018-08-09T11:15:55.178Z,32.79
2018-08-09T11:16:54.969Z,32.77
2018-08-09T11:17:55.194Z,32.75
2018-08-09T11:18:55.199Z,32.88
2018-08-09T11:19:55.216Z,32.85
2018-08-09T11:20:54.961Z,32.84
2018-08-09T11:21:55.216Z,32.81
2018-08-09T11:22:54.990Z,32.96
2018-08-09T11:23:55.236Z,32.89
2018-08-09T11:24:54.983Z,32.97
2018-08-09T11:25:55.237Z,33
2018-08-09T11:26:55.244Z,32.93
2018-08-09T11:27:55.253Z,32.93
2018-08-09T11:28:55.258Z,32.96
2018-08-09T11:29:55.269Z,32.92
2018-08-09T11:30:55.020Z,32.94
2018-08-09T11:31:55.280Z,33
2018-08-09T11:32:55.318Z,33
2018-08-09T11:33:55.049Z,33.06
2018-08-09T11:34:54.791Z,33.09
2018-08-09T11:35:55.320Z,33.16
2018-08-09T11:36:55.304Z,33.16
2018-08-09T11:37:55.066Z,33.22
2018-08-09T11:38:55.321Z,33.21
2018-08-09T11:39:55.569Z,33.15
2018-08-09T11:40:55.346Z,33.16
2018-08-09T11:41:55.336Z,33.14
2018-08-09T11:42:55.102Z,33.19
2018-08-09T11:43:55.371Z,33.35
2018-08-09T11:44:55.363Z,33.29
2018-08-09T11:45:55.111Z,33.38
2018-08-09T11:46:55.116Z,33.42
2018-08-09T11:47:55.126Z,33.39
2018-08-09T11:48:55.390Z,33.35
2018-08-09T11:49:55.137Z,33.41
2018-08-09T11:50:55.143Z,33.44
2018-08-09T11:51:55.402Z,33.54
2018-08-09T11:52:55.415Z,33.5
2018-08-09T11:53:55.161Z,33.54
2018-08-09T11:54:55.166Z,33.54
2018-08-09T11:55:55.423Z,33.65
2018-08-09T11:56:55.233Z,33.61
2018-08-09T11:57:55.196Z,33.61
2018-08-09T11:58:55.444Z,33.76
2018-08-09T11:59:55.451Z,33.71
2018-08-09T12:00:55.459Z,33.75
2018-08-09T12:01:55.280Z,33.82
2018-08-09T12:02:55.479Z,33.86
2018-08-09T12:03:55.476Z,33.81
2018-08-09T12:04:55.484Z,33.78
2018-08-09T12:05:55.237Z,33.79
2018-08-09T12:06:55.494Z,33.78
2018-08-09T12:07:55.250Z,33.78
2018-08-09T12:08:55.508Z,33.81
2018-08-09T12:09:55.516Z,33.76
2018-08-09T12:10:55.527Z,33.78
2018-08-09T12:11:55.276Z,33.88
2018-08-09T12:12:55.537Z,33.84
2018-08-09T12:13:55.296Z,33.86
2018-08-09T12:14:55.599Z,33.91
2018-08-09T12:15:55.553Z,33.91
2018-08-09T12:16:55.565Z,33.9
2018-08-09T12:17:55.315Z,33.93
2018-08-09T12:18:55.578Z,33.97
2018-08-09T12:19:55.583Z,33.98
2018-08-09T12:20:55.471Z,34.02
2018-08-09T12:21:55.343Z,33.94
2018-08-09T12:22:55.612Z,33.98
2018-08-09T12:23:55.609Z,33.94
2018-08-09T12:24:55.610Z,33.95
2018-08-09T12:25:55.620Z,33.95
2018-08-09T12:26:55.474Z,34.06
2018-08-09T12:27:55.381Z,34
2018-08-09T12:28:55.639Z,34.05
2018-08-09T12:29:55.650Z,34.06
2018-08-09T12:30:55.661Z,34.1
2018-08-09T12:31:55.667Z,34.06
2018-08-09T12:32:55.665Z,34.06
2018-08-09T12:33:55.672Z,34.05
2018-08-09T12:34:55.686Z,34.1
2018-08-09T12:35:55.683Z,34.13
2018-08-09T12:36:55.189Z,34.16
2018-08-09T12:37:55.454Z,34.09
2018-08-09T12:38:55.707Z,34.19
2018-08-09T12:39:55.460Z,34.21
2018-08-09T12:40:55.719Z,34.16
2018-08-09T12:41:55.727Z,34.17
2018-08-09T12:42:55.732Z,34.16
2018-08-09T12:43:55.739Z,34.3
2018-08-09T12:44:55.750Z,34.19
2018-08-09T12:45:55.503Z,34.19
2018-08-09T12:46:55.759Z,34.19
2018-08-09T12:47:55.263Z,34.16
2018-08-09T12:48:55.773Z,34.09
2018-08-09T12:49:55.780Z,34.16
2018-08-09T12:50:55.957Z,34.13
2018-08-09T12:51:55.793Z,34.1
2018-08-09T12:52:55.807Z,34.03
2018-08-09T12:53:55.805Z,34.1
2018-08-09T12:54:55.824Z,34.09
2018-08-09T12:55:55.576Z,34.16
2018-08-09T12:56:55.829Z,34.13
2018-08-09T12:57:55.832Z,34.15
2018-08-09T12:58:55.849Z,34.17
2018-08-09T12:59:56.077Z,34.16